AWY31 / G-HANG 7700 Squawk Report (19th of April, 2019)

Time Lat Lon Altitude Heading Speed Vertical Rate
2019-04-19 09:33:06 GMT 52.028049 -1.259762 3,775 215 166 -1020
2019-04-19 09:33:06 GMT 52.028049 -1.259762 6,250 215 166 -1020
2019-04-19 09:32:55 GMT 52.034946 -1.251739 6,475 227 161 -960
2019-04-19 09:32:26 GMT 52.049664 -1.225783 7,075 236 146 -720
2019-04-19 09:32:16 GMT 52.053951 -1.216599 7,225 229 158 -780
2019-04-19 09:32:06 GMT 52.058971 -1.207451 7,400 219 155 -420
2019-04-19 09:31:51 GMT 52.067883 -1.195905 7,600 205 143 -480
2019-04-19 09:31:41 GMT 52.073620 -1.191422 7,725 192 170 -600
2019-04-19 09:31:31 GMT 52.081337 -1.188674 7,875 187 116 0
2019-04-19 09:31:21 GMT 52.086697 -1.187548 8,000 176 154 0
2019-04-19 09:31:08 GMT 52.095959 -1.188561 8,000 167 150 0
2019-04-19 09:30:56 GMT 52.104332 -1.190498 8,000 162 147 0
2019-04-19 09:30:36 GMT 52.117214 -1.197018 8,000 158 145 0
2019-04-19 09:30:25 GMT 52.124226 -1.201104 8,000 143 133 0
2019-04-19 09:30:14 GMT 52.130295 -1.206394 8,050 109 125 0
2019-04-19 09:30:04 GMT 52.134659 -1.213601 8,025 86 127 0
2019-04-19 09:29:52 GMT 52.137009 -1.224340 8,050 71 137 0
2019-04-19 09:29:41 GMT 52.135777 -1.236018 8,025 63 139 0
2019-04-19 09:29:29 GMT 52.132320 -1.246996 8,000 60 138 0
2019-04-19 09:29:16 GMT 52.129021 -1.258746 8,025 58 141 0
2019-04-19 09:29:06 GMT 52.125160 -1.268017 8,025 60 137 0
2019-04-19 09:28:56 GMT 52.122707 -1.277124 8,025 57 138 0
2019-04-19 09:28:42 GMT 52.117615 -1.289594 8,025 63 125 0
2019-04-19 09:28:31 GMT 52.114136 -1.299192 8,025 61 132 0
2019-04-19 09:28:21 GMT 52.111225 -1.307998 8,025 55 117 0
2019-04-19 09:28:11 GMT 52.105049 -1.325108 8,025 65 135 -60
2019-04-19 09:28:01 GMT 52.105049 -1.325108 8,025 61 140 60
2019-04-19 09:27:49 GMT 52.101128 -1.335737 8,050 59 131 0
2019-04-19 09:27:36 GMT 52.097095 -1.346777 8,000 58 128 0
2019-04-19 09:27:22 GMT 52.092758 -1.358359 8,025 59 117 0
2019-04-19 09:27:11 GMT 52.091022 -1.367830 8,025 46 122 0
2019-04-19 09:27:01 GMT 52.087139 -1.374552 8,025 54 113 360
2019-04-19 09:26:51 GMT 52.081699 -1.391148 8,025 63 113 420
2019-04-19 09:26:38 GMT 52.081699 -1.391148 7,925 70 107 540
2019-04-19 09:26:27 GMT 52.079399 -1.398667 7,825 56 98 660
2019-04-19 09:26:16 GMT 52.077030 -1.405892 7,700 76 126 1200
2019-04-19 09:26:06 GMT 52.074741 -1.413117 7,550 59 81 1500
2019-04-19 09:25:56 GMT 52.072353 -1.419299 7,375 57 92 420
2019-04-19 09:25:44 GMT 52.069443 -1.427000 7,225 58 74 1020
2019-04-19 09:25:32 GMT 52.066685 -1.433496 7,075 63 105
2019-04-19 09:25:20 GMT 52.063999 -1.440513 6,875 55 84

Making use of Plane Finder data

You are free to use the raw flight data, aircraft information and images provided in this report for your own purposes provided the data is correctly attributed to Plane Finder. We ask that you please credit Plane Finder and link to planefinder.net in close proximity to the content.

Optionally one of the following logos (no smaller then 150x24px) can be used and must link to planefinder.net

Embedding the Plane Finder map

You are welcome to embed the Plane Finder playback map on your website to offer visitors a more interactive experience. We suggest using the following HTML code:

<iframe src="//planefinder.net/data/report/AWY31-G-HANG-7700-squawk-2019-04-19/map" width="800" height="600" seamless="seamless"></iframe>

Where our data comes from

Plane Finder has a global network of data feeds and antenna radars that receive data broadcast directly from aircraft. The primary technologies used are ADS-B and MLAT. We also show feeds from the FAA and a FLARM glider feed.

Click here to find out more about the Plane Finder network.

How we collect our data